Time,TemperatureF,DewpointF,PressureIn,WindDirection,WindDirectionDegrees,WindSpeedMPH,WindSpeedGustMPH,Humidity,HourlyPrecipIn,Conditions,Clouds,dailyrainin,SoftwareType,DateUTC
2013-01-26 00:00:00,53.0,53.0,30.03,SE,127,0.0,0.0,100,0.00,n/a,n/a,-99.99,Henriksen +1-Wire,2013-01-26 08:00:00,
2013-01-26 00:05:00,53.0,53.0,30.02,ESE,108,0.0,0.0,100,0.00,n/a,n/a,-99.99,Henriksen +1-Wire,2013-01-26 08:05:00,
2013-01-26 00:12:00,53.0,53.0,30.02,East,86,0.6,0.8,100,0.00,n/a,n/a,-99.99,Henriksen +1-Wire,2013-01-26 08:12:00,
2013-01-26 00:18:00,53.0,53.0,30.02,East,96,0.6,0.8,100,0.00,n/a,n/a,-99.99,Henriksen +1-Wire,2013-01-26 08:18:00,
2013-01-26 00:23:00,53.0,53.0,30.02,East,93,0.6,0.8,100,0.00,n/a,n/a,-99.99,Henriksen +1-Wire,2013-01-26 08:23:00,
2013-01-26 00:30:00,53.0,53.0,30.01,East,98,0.6,0.8,100,0.00,n/a,n/a,-99.99,Henriksen +1-Wire,2013-01-26 08:30:00,
2013-01-26 00:35:00,53.1,53.1,30.02,East,97,0.6,1.3,100,0.00,n/a,n/a,-99.99,Henriksen +1-Wire,2013-01-26 08:35:00,
2013-01-26 00:41:00,53.2,53.2,30.01,East,85,2.0,3.9,100,0.00,n/a,n/a,-99.99,Henriksen +1-Wire,2013-01-26 08:41:00,
2013-01-26 00:48:00,53.2,53.2,30.01,East,92,3.1,5.2,100,0.00,n/a,n/a,-99.99,Henriksen +1-Wire,2013-01-26 08:48:00,
2013-01-26 00:54:00,53.1,53.1,30.01,East,94,3.6,6.4,100,0.00,n/a,n/a,-99.99,Henriksen +1-Wire,2013-01-26 08:54:00,
2013-01-26 01:00:00,53.0,53.0,30.01,East,100,2.3,6.5,100,0.00,n/a,n/a,-99.99,Henriksen +1-Wire,2013-01-26 09:00:00,
2013-01-26 01:05:00,52.9,52.9,30.01,ESE,108,2.6,6.0,100,0.00,n/a,n/a,-99.99,Henriksen +1-Wire,2013-01-26 09:05:00,
2013-01-26 01:11:00,52.7,52.7,30.01,East,93,3.1,6.0,100,0.00,n/a,n/a,-99.99,Henriksen +1-Wire,2013-01-26 09:11:00,
2013-01-26 01:17:00,52.6,52.6,30.01,East,98,3.0,5.8,100,0.00,n/a,n/a,-99.99,Henriksen +1-Wire,2013-01-26 09:17:00,
2013-01-26 01:23:00,52.5,52.5,30.01,ESE,113,2.6,6.4,100,0.00,n/a,n/a,-99.99,Henriksen +1-Wire,2013-01-26 09:23:00,
2013-01-26 01:30:00,52.4,52.4,30.00,ESE,105,0.7,4.5,100,0.00,n/a,n/a,-99.99,Henriksen +1-Wire,2013-01-26 09:30:00,
2013-01-26 01:35:00,52.4,52.4,30.00,East,101,1.8,3.9,100,0.00,n/a,n/a,-99.99,Henriksen +1-Wire,2013-01-26 09:35:00,
2013-01-26 01:42:00,52.4,52.4,30.00,ESE,123,2.2,3.9,100,0.00,n/a,n/a,-99.99,Henriksen +1-Wire,2013-01-26 09:42:00,
2013-01-26 01:48:00,52.4,52.4,30.00,ESE,111,2.8,4.3,100,0.00,n/a,n/a,-99.99,Henriksen +1-Wire,2013-01-26 09:48:00,
2013-01-26 01:53:00,52.4,52.4,30.00,ESE,114,2.5,4.5,100,0.00,n/a,n/a,-99.99,Henriksen +1-Wire,2013-01-26 09:53:00,
2013-01-26 02:00:00,52.4,52.4,30.00,ESE,115,0.6,4.5,100,0.00,n/a,n/a,-99.99,Henriksen +1-Wire,2013-01-26 10:00:00,
2013-01-26 02:05:00,52.4,52.4,30.00,ESE,117,1.1,5.2,100,0.00,n/a,n/a,-99.99,Henriksen +1-Wire,2013-01-26 10:05:00,
2013-01-26 02:11:00,52.4,52.4,30.00,ESE,111,0.8,5.2,100,0.00,n/a,n/a,-99.99,Henriksen +1-Wire,2013-01-26 10:11:00,
2013-01-26 02:17:00,52.5,52.5,30.00,ESE,116,1.9,4.5,100,0.00,n/a,n/a,-99.99,Henriksen +1-Wire,2013-01-26 10:17:00,
2013-01-26 02:23:00,52.6,52.6,30.00,ESE,120,1.0,4.5,100,0.00,n/a,n/a,-99.99,Henriksen +1-Wire,2013-01-26 10:23:00,
2013-01-26 02:30:00,52.6,52.6,30.00,ESE,111,0.3,3.2,100,0.00,n/a,n/a,-99.99,Henriksen +1-Wire,2013-01-26 10:30:00,
2013-01-26 02:35:00,52.7,52.7,30.00,SE,137,0.9,3.2,100,0.00,n/a,n/a,-99.99,Henriksen +1-Wire,2013-01-26 10:35:00,
2013-01-26 02:41:00,52.7,52.7,30.00,SSE,149,0.7,3.2,100,0.00,n/a,n/a,-99.99,Henriksen +1-Wire,2013-01-26 10:41:00,
2013-01-26 02:47:00,52.7,52.7,30.00,SE,132,0.6,2.6,100,0.00,n/a,n/a,-99.99,Henriksen +1-Wire,2013-01-26 10:47:00,
2013-01-26 02:53:00,52.7,52.7,30.00,SE,129,0.8,3.9,100,0.00,n/a,n/a,-99.99,Henriksen +1-Wire,2013-01-26 10:53:00,
2013-01-26 02:59:00,52.7,52.7,29.99,SE,127,0.8,2.6,100,0.00,n/a,n/a,-99.99,Henriksen +1-Wire,2013-01-26 10:59:00,
2013-01-26 03:05:00,52.7,52.7,29.99,SE,137,0.6,2.6,100,0.00,n/a,n/a,-99.99,Henriksen +1-Wire,2013-01-26 11:05:00,
2013-01-26 03:12:00,52.7,52.7,29.99,SSE,154,1.3,3.2,100,0.00,n/a,n/a,-99.99,Henriksen +1-Wire,2013-01-26 11:12:00,
2013-01-26 03:17:00,52.6,52.6,29.99,SE,139,2.5,4.5,100,0.00,n/a,n/a,-99.99,Henriksen +1-Wire,2013-01-26 11:17:00,
2013-01-26 03:23:00,52.4,52.4,29.99,SE,140,3.0,5.2,100,0.00,n/a,n/a,-99.99,Henriksen +1-Wire,2013-01-26 11:23:00,
2013-01-26 03:30:00,52.4,52.4,29.99,SE,136,1.4,5.8,100,0.00,n/a,n/a,-99.99,Henriksen +1-Wire,2013-01-26 11:30:00,
2013-01-26 03:35:00,52.2,52.2,29.98,SE,142,2.8,5.2,100,0.00,n/a,n/a,-99.99,Henriksen +1-Wire,2013-01-26 11:35:00,
2013-01-26 03:42:00,52.2,52.2,29.98,SE,131,1.2,5.2,100,0.00,n/a,n/a,-99.99,Henriksen +1-Wire,2013-01-26 11:42:00,
2013-01-26 03:47:00,52.1,52.1,29.98,SE,131,1.7,5.2,100,0.00,n/a,n/a,-99.99,Henriksen +1-Wire,2013-01-26 11:47:00,
2013-01-26 03:53:00,52.1,52.1,29.98,SE,133,2.8,5.8,100,0.00,n/a,n/a,-99.99,Henriksen +1-Wire,2013-01-26 11:53:00,
2013-01-26 04:00:00,52.1,52.1,29.98,SE,130,3.2,5.8,100,0.00,n/a,n/a,-99.99,Henriksen +1-Wire,2013-01-26 12:00:00,
2013-01-26 04:06:00,52.2,52.2,29.97,SE,124,2.0,5.2,100,0.00,n/a,n/a,-99.99,Henriksen +1-Wire,2013-01-26 12:06:00,
2013-01-26 04:12:00,52.2,52.2,29.97,SE,135,2.4,4.5,100,0.00,n/a,n/a,-99.99,Henriksen +1-Wire,2013-01-26 12:12:00,
2013-01-26 04:17:00,52.2,52.2,29.98,SE,133,3.0,5.8,100,0.00,n/a,n/a,-99.99,Henriksen +1-Wire,2013-01-26 12:17:00,
2013-01-26 04:24:00,52.2,52.2,29.98,SE,128,1.5,5.8,100,0.00,n/a,n/a,-99.99,Henriksen +1-Wire,2013-01-26 12:24:00,
2013-01-26 04:29:00,52.2,52.2,29.97,SE,131,2.8,4.6,100,0.00,n/a,n/a,-99.99,Henriksen +1-Wire,2013-01-26 12:29:00,
2013-01-26 04:35:00,52.3,52.3,29.97,SE,130,4.1,8.4,100,0.00,n/a,n/a,-99.99,Henriksen +1-Wire,2013-01-26 12:35:00,
2013-01-26 04:42:00,52.3,52.3,29.97,SE,143,3.5,8.4,100,0.00,n/a,n/a,-99.99,Henriksen +1-Wire,2013-01-26 12:42:00,
2013-01-26 04:47:00,52.2,52.2,29.97,SE,130,2.8,6.4,100,0.00,n/a,n/a,-99.99,Henriksen +1-Wire,2013-01-26 12:47:00,
2013-01-26 04:53:00,52.1,52.1,29.97,SE,139,3.0,6.5,100,0.00,n/a,n/a,-99.99,Henriksen +1-Wire,2013-01-26 12:53:00,
2013-01-26 05:00:00,52.0,52.0,29.97,SE,146,1.4,5.8,100,0.00,n/a,n/a,-99.99,Henriksen +1-Wire,2013-01-26 13:00:00,
2013-01-26 05:06:00,51.9,51.9,29.97,SSE,154,1.0,5.1,100,0.00,n/a,n/a,-99.99,Henriksen +1-Wire,2013-01-26 13:06:00,
2013-01-26 05:11:00,51.9,51.9,29.98,SE,137,1.5,5.1,100,0.00,n/a,n/a,-99.99,Henriksen +1-Wire,2013-01-26 13:11:00,
2013-01-26 05:17:00,51.8,51.8,29.98,South,174,0.1,3.2,100,0.00,n/a,n/a,-99.99,Henriksen +1-Wire,2013-01-26 13:17:00,
2013-01-26 05:23:00,51.8,51.8,29.97,South,174,0.9,3.4,100,0.00,n/a,n/a,-99.99,Henriksen +1-Wire,2013-01-26 13:23:00,
2013-01-26 05:30:00,51.7,51.7,29.97,South,181,0.6,3.4,100,0.00,n/a,n/a,-99.99,Henriksen +1-Wire,2013-01-26 13:30:00,
2013-01-26 05:36:00,51.6,51.6,29.98,South,183,1.9,4.5,100,0.00,n/a,n/a,-99.99,Henriksen +1-Wire,2013-01-26 13:36:00,
2013-01-26 05:41:00,51.5,51.5,29.97,SSE,150,2.7,5.2,100,0.00,n/a,n/a,-99.99,Henriksen +1-Wire,2013-01-26 13:41:00,
2013-01-26 05:47:00,51.4,51.4,29.97,SSE,150,1.4,5.1,100,0.00,n/a,n/a,-99.99,Henriksen +1-Wire,2013-01-26 13:47:00,
2013-01-26 05:53:00,51.3,51.3,29.97,SE,146,0.9,4.6,100,0.00,n/a,n/a,-99.99,Henriksen +1-Wire,2013-01-26 13:53:00,
2013-01-26 06:00:00,51.3,51.3,29.97,SSE,154,0.7,4.6,100,0.00,n/a,n/a,-99.99,Henriksen +1-Wire,2013-01-26 14:00:00,
2013-01-26 06:06:00,51.2,51.2,29.97,SE,139,2.4,5.2,100,0.00,n/a,n/a,-99.99,Henriksen +1-Wire,2013-01-26 14:06:00,
2013-01-26 06:11:00,51.1,51.1,29.97,SSE,148,1.7,5.2,100,0.00,n/a,n/a,-99.99,Henriksen +1-Wire,2013-01-26 14:11:00,
2013-01-26 06:18:00,50.9,50.9,29.97,SSE,155,2.2,4.5,100,0.00,n/a,n/a,-99.99,Henriksen +1-Wire,2013-01-26 14:18:00,
2013-01-26 06:24:00,50.7,50.7,29.98,SSE,158,2.1,4.5,100,0.00,n/a,n/a,-99.99,Henriksen +1-Wire,2013-01-26 14:24:00,
2013-01-26 06:30:00,50.5,50.5,29.98,SSE,156,1.9,4.6,100,0.00,n/a,n/a,-99.99,Henriksen +1-Wire,2013-01-26 14:30:00,
2013-01-26 06:36:00,50.4,50.4,29.97,South,182,0.8,4.5,100,0.00,n/a,n/a,-99.99,Henriksen +1-Wire,2013-01-26 14:36:00,
2013-01-26 06:41:00,50.2,50.2,29.97,SE,133,1.7,3.9,100,0.00,n/a,n/a,-99.99,Henriksen +1-Wire,2013-01-26 14:41:00,
2013-01-26 06:47:00,50.1,50.1,29.97,SE,133,1.2,3.6,100,0.00,n/a,n/a,-99.99,Henriksen +1-Wire,2013-01-26 14:47:00,
2013-01-26 06:53:00,49.9,49.9,29.97,SE,142,0.6,3.2,100,0.00,n/a,n/a,-99.99,Henriksen +1-Wire,2013-01-26 14:53:00,
2013-01-26 06:59:00,49.6,49.6,29.97,ESE,121,0.6,1.3,100,0.00,n/a,n/a,-99.99,Henriksen +1-Wire,2013-01-26 14:59:00,
2013-01-26 07:06:00,49.3,49.3,29.96,SSE,147,0.4,1.3,100,0.00,n/a,n/a,-99.99,Henriksen +1-Wire,2013-01-26 15:06:00,
2013-01-26 07:11:00,49.1,49.1,29.97,SE,132,0.6,1.3,100,0.00,n/a,n/a,-99.99,Henriksen +1-Wire,2013-01-26 15:11:00,
2013-01-26 07:17:00,48.9,48.9,29.97,SE,137,0.6,0.8,100,0.00,n/a,n/a,-99.99,Henriksen +1-Wire,2013-01-26 15:17:00,
2013-01-26 07:24:00,48.8,48.8,29.97,ESE,109,0.3,0.8,100,0.00,n/a,n/a,-99.99,Henriksen +1-Wire,2013-01-26 15:24:00,
2013-01-26 07:30:00,48.7,48.7,29.96,ESE,119,0.5,0.8,100,0.00,n/a,n/a,-99.99,Henriksen +1-Wire,2013-01-26 15:30:00,
2013-01-26 07:35:00,48.6,48.6,29.97,SE,130,0.6,1.3,100,0.00,n/a,n/a,-99.99,Henriksen +1-Wire,2013-01-26 15:35:00,
2013-01-26 07:42:00,48.7,48.7,29.97,SE,142,0.2,0.8,100,0.00,n/a,n/a,-99.99,Henriksen +1-Wire,2013-01-26 15:42:00,
2013-01-26 07:47:00,48.9,48.9,29.97,SE,125,2.4,5.2,100,0.00,n/a,n/a,-99.99,Henriksen +1-Wire,2013-01-26 15:47:00,
2013-01-26 07:53:00,49.1,49.1,29.96,ESE,116,2.3,5.2,100,0.00,n/a,n/a,-99.99,Henriksen +1-Wire,2013-01-26 15:53:00,
2013-01-26 07:59:00,49.3,49.3,29.97,ESE,117,1.2,4.5,100,0.00,n/a,n/a,-99.99,Henriksen +1-Wire,2013-01-26 15:59:00,
2013-01-26 08:05:00,49.4,49.4,29.97,ESE,121,2.9,5.2,100,0.00,n/a,n/a,-99.99,Henriksen +1-Wire,2013-01-26 16:05:00,
2013-01-26 08:11:00,49.5,49.5,29.97,ESE,115,2.9,5.8,100,0.00,n/a,n/a,-99.99,Henriksen +1-Wire,2013-01-26 16:11:00,
2013-01-26 08:18:00,49.5,49.5,29.97,SE,132,1.6,5.8,100,0.00,n/a,n/a,-99.99,Henriksen +1-Wire,2013-01-26 16:18:00,
2013-01-26 08:23:00,49.6,49.6,29.97,ESE,120,3.4,5.8,100,0.00,n/a,n/a,-99.99,Henriksen +1-Wire,2013-01-26 16:23:00,
2013-01-26 08:29:00,49.7,49.7,29.98,SE,127,2.3,5.9,100,0.00,n/a,n/a,-99.99,Henriksen +1-Wire,2013-01-26 16:29:00,
2013-01-26 08:36:00,49.7,49.7,29.97,SE,135,3.0,5.8,100,0.00,n/a,n/a,-99.99,Henriksen +1-Wire,2013-01-26 16:36:00,
2013-01-26 08:41:00,49.7,49.7,29.97,SE,140,2.4,6.5,100,0.00,n/a,n/a,-99.99,Henriksen +1-Wire,2013-01-26 16:41:00,
2013-01-26 08:48:00,49.8,49.8,29.98,SE,139,2.8,5.9,100,0.00,n/a,n/a,-99.99,Henriksen +1-Wire,2013-01-26 16:48:00,
2013-01-26 08:54:00,49.8,49.8,29.98,SSE,152,0.9,4.5,100,0.00,n/a,n/a,-99.99,Henriksen +1-Wire,2013-01-26 16:54:00,
2013-01-26 09:00:00,49.9,49.9,29.98,SE,145,2.9,5.2,100,0.00,n/a,n/a,-99.99,Henriksen +1-Wire,2013-01-26 17:00:00,
2013-01-26 09:05:00,49.8,49.8,29.97,SE,143,3.5,5.8,100,0.00,n/a,n/a,-99.99,Henriksen +1-Wire,2013-01-26 17:05:00,
2013-01-26 09:12:00,49.9,49.9,29.98,SE,138,3.5,5.8,100,0.00,n/a,n/a,-99.99,Henriksen +1-Wire,2013-01-26 17:12:00,
2013-01-26 09:17:00,50.0,50.0,29.98,SE,139,1.6,5.8,100,0.00,n/a,n/a,-99.99,Henriksen +1-Wire,2013-01-26 17:17:00,
2013-01-26 09:24:00,50.3,50.3,29.98,SE,145,1.9,5.8,100,0.00,n/a,n/a,-99.99,Henriksen +1-Wire,2013-01-26 17:24:00,
2013-01-26 09:29:00,50.5,50.5,29.98,SE,145,2.0,7.1,100,0.00,n/a,n/a,-99.99,Henriksen +1-Wire,2013-01-26 17:29:00,
2013-01-26 09:35:00,50.7,50.7,29.98,South,184,1.0,4.5,100,0.00,n/a,n/a,-99.99,Henriksen +1-Wire,2013-01-26 17:35:00,
2013-01-26 09:41:00,51.0,51.0,29.99,SE,124,3.2,5.2,100,0.00,n/a,n/a,-99.99,Henriksen +1-Wire,2013-01-26 17:41:00,
2013-01-26 09:47:00,51.0,51.0,29.99,SE,134,2.6,5.2,100,0.00,n/a,n/a,-99.99,Henriksen +1-Wire,2013-01-26 17:47:00,
2013-01-26 09:54:00,51.1,51.1,29.98,South,179,3.1,6.5,100,0.00,n/a,n/a,-99.99,Henriksen +1-Wire,2013-01-26 17:54:00,
2013-01-26 10:00:00,51.1,51.1,29.98,SSE,153,3.1,6.5,100,0.00,n/a,n/a,-99.99,Henriksen +1-Wire,2013-01-26 18:00:00,
2013-01-26 10:05:00,51.3,51.3,29.99,South,178,0.9,5.2,100,0.00,n/a,n/a,-99.99,Henriksen +1-Wire,2013-01-26 18:05:00,
2013-01-26 10:11:00,51.5,51.5,29.98,SSE,148,2.9,4.5,100,0.00,n/a,n/a,-99.99,Henriksen +1-Wire,2013-01-26 18:11:00,
2013-01-26 10:17:00,51.8,51.8,29.98,SE,145,2.0,4.6,100,0.00,n/a,n/a,-99.99,Henriksen +1-Wire,2013-01-26 18:17:00,
2013-01-26 10:23:00,52.1,52.1,29.98,SE,132,2.8,5.2,100,0.00,n/a,n/a,-99.99,Henriksen +1-Wire,2013-01-26 18:23:00,
2013-01-26 10:29:00,52.2,52.2,29.99,SE,139,3.0,6.4,100,0.00,n/a,n/a,-99.99,Henriksen +1-Wire,2013-01-26 18:29:00,
2013-01-26 10:36:00,52.5,52.5,29.98,South,184,2.8,6.4,100,0.00,n/a,n/a,-99.99,Henriksen +1-Wire,2013-01-26 18:36:00,
2013-01-26 10:42:00,53.3,53.3,29.98,South,190,3.5,6.2,100,0.00,n/a,n/a,-99.99,Henriksen +1-Wire,2013-01-26 18:42:00,
2013-01-26 10:47:00,54.3,54.2,29.99,SE,141,3.4,5.8,99,0.00,n/a,n/a,-99.99,Henriksen +1-Wire,2013-01-26 18:47:00,
2013-01-26 10:54:00,54.8,54.6,29.99,SE,133,3.6,6.5,99,0.00,n/a,n/a,-99.99,Henriksen +1-Wire,2013-01-26 18:54:00,
2013-01-26 11:00:00,54.9,54.3,29.99,SSE,155,3.0,5.8,97,0.00,n/a,n/a,-99.99,Henriksen +1-Wire,2013-01-26 19:00:00,
2013-01-26 11:06:00,55.2,54.1,29.98,South,169,3.0,5.8,96,0.00,n/a,n/a,-99.99,Henriksen +1-Wire,2013-01-26 19:06:00,
2013-01-26 11:11:00,55.6,54.0,29.98,SSE,156,1.2,4.5,94,0.00,n/a,n/a,-99.99,Henriksen +1-Wire,2013-01-26 19:11:00,
2013-01-26 11:17:00,56.8,54.7,29.98,South,179,3.8,7.1,92,0.00,n/a,n/a,-99.99,Henriksen +1-Wire,2013-01-26 19:17:00,
2013-01-26 11:24:00,57.9,55.0,29.98,SW,231,2.5,7.1,89,0.00,n/a,n/a,-99.99,Henriksen +1-Wire,2013-01-26 19:24:00,
2013-01-26 11:30:00,58.3,54.5,29.98,SW,223,5.5,10.8,86,0.00,n/a,n/a,-99.99,Henriksen +1-Wire,2013-01-26 19:30:00,
2013-01-26 11:35:00,58.1,53.7,29.97,SSW,210,3.9,10.8,84,0.00,n/a,n/a,-99.99,Henriksen +1-Wire,2013-01-26 19:35:00,
2013-01-26 11:41:00,58.1,53.5,29.97,South,185,2.5,7.8,84,0.00,n/a,n/a,-99.99,Henriksen +1-Wire,2013-01-26 19:41:00,
2013-01-26 11:47:00,58.6,54.0,29.97,South,179,2.0,6.5,84,0.00,n/a,n/a,-99.99,Henriksen +1-Wire,2013-01-26 19:47:00,
2013-01-26 11:54:00,59.2,54.5,29.97,SSW,204,2.0,5.2,84,0.00,n/a,n/a,-99.99,Henriksen +1-Wire,2013-01-26 19:54:00,
2013-01-26 12:00:00,59.8,54.6,29.96,SSW,205,2.8,7.1,82,0.00,n/a,n/a,-99.99,Henriksen +1-Wire,2013-01-26 20:00:00,
2013-01-26 12:06:00,60.2,54.6,29.96,South,170,4.2,9.0,81,0.00,n/a,n/a,-99.99,Henriksen +1-Wire,2013-01-26 20:06:00,
2013-01-26 12:11:00,60.2,53.8,29.96,South,187,3.4,9.7,79,0.00,n/a,n/a,-99.99,Henriksen +1-Wire,2013-01-26 20:11:00,
2013-01-26 12:18:00,60.4,53.3,29.96,South,188,4.6,10.3,77,0.00,n/a,n/a,-99.99,Henriksen +1-Wire,2013-01-26 20:18:00,
2013-01-26 12:24:00,60.6,53.1,29.96,SSE,154,5.6,11.6,75,0.00,n/a,n/a,-99.99,Henriksen +1-Wire,2013-01-26 20:24:00,
2013-01-26 12:36:00,60.1,51.9,29.95,South,191,3.8,10.4,73,0.00,n/a,n/a,-99.99,Henriksen +1-Wire,2013-01-26 20:36:00,
2013-01-26 12:41:00,60.0,51.8,29.95,SSE,148,5.1,9.1,74,0.00,n/a,n/a,-99.99,Henriksen +1-Wire,2013-01-26 20:41:00,
2013-01-26 12:48:00,59.5,51.2,29.94,SSE,164,3.8,10.4,73,0.00,n/a,n/a,-99.99,Henriksen +1-Wire,2013-01-26 20:48:00,
2013-01-26 12:54:00,59.2,50.8,29.94,South,185,4.5,10.4,73,0.00,n/a,n/a,-99.99,Henriksen +1-Wire,2013-01-26 20:54:00,
2013-01-26 13:00:00,59.0,50.7,29.94,South,180,4.6,9.1,73,0.00,n/a,n/a,-99.99,Henriksen +1-Wire,2013-01-26 21:00:00,
2013-01-26 13:06:00,59.2,50.7,29.95,SSW,194,3.3,9.1,73,0.00,n/a,n/a,-99.99,Henriksen +1-Wire,2013-01-26 21:06:00,
2013-01-26 13:12:00,59.6,51.2,29.94,South,169,4.1,7.5,73,0.00,n/a,n/a,-99.99,Henriksen +1-Wire,2013-01-26 21:12:00,
2013-01-26 13:18:00,59.2,50.7,29.94,SSE,162,3.9,8.4,73,0.00,n/a,n/a,-99.99,Henriksen +1-Wire,2013-01-26 21:18:00,
2013-01-26 13:24:00,58.8,50.4,29.93,SSW,211,4.1,13.0,73,0.00,n/a,n/a,-99.99,Henriksen +1-Wire,2013-01-26 21:24:00,
2013-01-26 13:30:00,58.9,50.6,29.93,South,187,2.8,8.4,73,0.00,n/a,n/a,-99.99,Henriksen +1-Wire,2013-01-26 21:30:00,
2013-01-26 13:35:00,59.3,50.9,29.93,South,187,4.5,8.4,73,0.00,n/a,n/a,-99.99,Henriksen +1-Wire,2013-01-26 21:35:00,
2013-01-26 13:41:00,59.9,51.2,29.93,SSE,165,4.3,8.5,72,0.00,n/a,n/a,-99.99,Henriksen +1-Wire,2013-01-26 21:41:00,
2013-01-26 13:48:00,60.0,50.9,29.93,SE,143,5.0,10.4,71,0.00,n/a,n/a,-99.99,Henriksen +1-Wire,2013-01-26 21:48:00,
2013-01-26 13:54:00,60.2,50.6,29.93,SSE,149,5.4,12.2,70,0.00,n/a,n/a,-99.99,Henriksen +1-Wire,2013-01-26 21:54:00,
2013-01-26 13:59:00,60.4,50.2,29.93,SSE,165,4.3,12.9,68,0.00,n/a,n/a,-99.99,Henriksen +1-Wire,2013-01-26 21:59:00,
2013-01-26 14:06:00,60.6,49.9,29.93,South,177,6.1,13.0,67,0.00,n/a,n/a,-99.99,Henriksen +1-Wire,2013-01-26 22:06:00,
2013-01-26 14:11:00,60.6,49.3,29.94,South,190,5.2,13.0,65,0.00,n/a,n/a,-99.99,Henriksen +1-Wire,2013-01-26 22:11:00,
2013-01-26 14:18:00,60.5,48.2,29.94,South,178,4.0,10.4,63,0.00,n/a,n/a,-99.99,Henriksen +1-Wire,2013-01-26 22:18:00,
2013-01-26 14:23:00,60.6,47.7,29.94,South,188,4.6,10.4,62,0.00,n/a,n/a,-99.99,Henriksen +1-Wire,2013-01-26 22:23:00,
2013-01-26 14:30:00,60.6,47.2,29.94,SSW,202,5.3,9.7,61,0.00,n/a,n/a,-99.99,Henriksen +1-Wire,2013-01-26 22:30:00,
2013-01-26 14:35:00,60.7,46.8,29.95,South,186,4.6,9.7,59,0.00,n/a,n/a,-99.99,Henriksen +1-Wire,2013-01-26 22:35:00,
2013-01-26 14:42:00,60.7,46.4,29.94,South,176,5.7,11.0,58,0.00,n/a,n/a,-99.99,Henriksen +1-Wire,2013-01-26 22:42:00,
2013-01-26 14:48:00,60.9,46.2,29.94,SSE,157,5.0,11.0,58,0.00,n/a,n/a,-99.99,Henriksen +1-Wire,2013-01-26 22:48:00,
2013-01-26 14:54:00,60.9,46.0,29.94,SSE,155,4.8,9.7,57,0.00,n/a,n/a,-99.99,Henriksen +1-Wire,2013-01-26 22:54:00,
2013-01-26 15:00:00,60.8,45.8,29.94,South,174,4.2,9.7,57,0.00,n/a,n/a,-99.99,Henriksen +1-Wire,2013-01-26 23:00:00,
2013-01-26 15:05:00,60.9,45.8,29.94,South,170,3.4,9.7,57,0.00,n/a,n/a,-99.99,Henriksen +1-Wire,2013-01-26 23:05:00,
2013-01-26 15:12:00,60.8,45.4,29.93,South,185,5.7,9.7,56,0.00,n/a,n/a,-99.99,Henriksen +1-Wire,2013-01-26 23:12:00,
2013-01-26 15:18:00,60.9,45.2,29.93,South,184,5.0,9.7,55,0.00,n/a,n/a,-99.99,Henriksen +1-Wire,2013-01-26 23:18:00,
2013-01-26 15:24:00,60.9,44.9,29.93,SSE,159,3.7,11.7,55,0.00,n/a,n/a,-99.99,Henriksen +1-Wire,2013-01-26 23:24:00,
2013-01-26 15:30:00,61.0,44.8,29.93,South,185,4.7,9.7,54,0.00,n/a,n/a,-99.99,Henriksen +1-Wire,2013-01-26 23:30:00,
2013-01-26 15:36:00,61.0,44.5,29.93,South,182,3.8,8.4,54,0.00,n/a,n/a,-99.99,Henriksen +1-Wire,2013-01-26 23:36:00,
2013-01-26 15:42:00,60.9,44.1,29.93,South,176,4.0,8.4,53,0.00,n/a,n/a,-99.99,Henriksen +1-Wire,2013-01-26 23:42:00,
2013-01-26 15:48:00,60.9,44.0,29.93,South,182,5.1,8.5,53,0.00,n/a,n/a,-99.99,Henriksen +1-Wire,2013-01-26 23:48:00,
2013-01-26 15:54:00,60.5,43.8,29.94,SSW,199,6.4,13.5,53,0.00,n/a,n/a,-99.99,Henriksen +1-Wire,2013-01-26 23:54:00,
2013-01-26 16:00:00,59.9,43.8,29.93,SSW,192,7.2,13.5,55,0.00,n/a,n/a,-99.99,Henriksen +1-Wire,2013-01-27 00:00:00,
2013-01-26 16:06:00,59.4,43.9,29.93,SSW,194,7.5,13.0,56,0.00,n/a,n/a,-99.99,Henriksen +1-Wire,2013-01-27 00:06:00,
2013-01-26 16:12:00,59.2,44.5,29.93,SSW,198,4.7,13.0,57,0.00,n/a,n/a,-99.99,Henriksen +1-Wire,2013-01-27 00:12:00,
2013-01-26 16:17:00,58.8,44.8,29.93,South,190,5.0,10.4,59,0.00,n/a,n/a,-99.99,Henriksen +1-Wire,2013-01-27 00:17:00,
2013-01-26 16:24:00,58.4,45.0,29.93,SSW,200,5.9,12.3,60,0.00,n/a,n/a,-99.99,Henriksen +1-Wire,2013-01-27 00:24:00,
2013-01-26 16:30:00,58.1,45.1,29.93,SSW,199,4.6,12.3,61,0.00,n/a,n/a,-99.99,Henriksen +1-Wire,2013-01-27 00:30:00,
2013-01-26 16:36:00,57.5,45.0,29.93,South,177,4.9,11.6,62,0.00,n/a,n/a,-99.99,Henriksen +1-Wire,2013-01-27 00:36:00,
2013-01-26 16:42:00,56.9,45.1,29.93,SSW,208,6.3,11.7,64,0.00,n/a,n/a,-99.99,Henriksen +1-Wire,2013-01-27 00:42:00,
2013-01-26 16:48:00,56.6,45.3,29.93,South,185,6.0,12.3,65,0.00,n/a,n/a,-99.99,Henriksen +1-Wire,2013-01-27 00:48:00,
2013-01-26 16:54:00,56.2,45.4,29.94,South,186,5.5,11.0,66,0.00,n/a,n/a,-99.99,Henriksen +1-Wire,2013-01-27 00:54:00,
2013-01-26 17:00:00,55.9,45.4,29.94,South,184,6.7,9.7,67,0.00,n/a,n/a,-99.99,Henriksen +1-Wire,2013-01-27 01:00:00,
2013-01-26 17:06:00,55.7,45.4,29.93,South,177,4.0,9.7,68,0.00,n/a,n/a,-99.99,Henriksen +1-Wire,2013-01-27 01:06:00,
2013-01-26 17:12:00,55.4,45.4,29.93,South,169,3.1,9.7,68,0.00,n/a,n/a,-99.99,Henriksen +1-Wire,2013-01-27 01:12:00,
2013-01-26 17:17:00,55.0,45.2,29.93,South,185,4.5,7.7,69,0.00,n/a,n/a,-99.99,Henriksen +1-Wire,2013-01-27 01:17:00,
2013-01-26 17:24:00,54.7,45.3,29.94,South,172,3.9,9.7,70,0.00,n/a,n/a,-99.99,Henriksen +1-Wire,2013-01-27 01:24:00,
2013-01-26 17:30:00,54.3,45.2,29.94,South,174,3.8,9.0,71,0.00,n/a,n/a,-99.99,Henriksen +1-Wire,2013-01-27 01:30:00,
2013-01-26 17:36:00,54.0,45.1,29.94,South,169,3.4,9.0,71,0.00,n/a,n/a,-99.99,Henriksen +1-Wire,2013-01-27 01:36:00,
2013-01-26 17:42:00,53.8,45.1,29.94,South,173,4.6,10.9,72,0.00,n/a,n/a,-99.99,Henriksen +1-Wire,2013-01-27 01:42:00,
2013-01-26 17:48:00,53.4,45.0,29.94,South,172,4.0,10.9,72,0.00,n/a,n/a,-99.99,Henriksen +1-Wire,2013-01-27 01:48:00,
2013-01-26 17:54:00,53.0,44.9,29.94,South,175,2.9,9.7,73,0.00,n/a,n/a,-99.99,Henriksen +1-Wire,2013-01-27 01:54:00,
2013-01-26 18:00:00,52.7,44.8,29.94,South,176,3.7,9.1,74,0.00,n/a,n/a,-99.99,Henriksen +1-Wire,2013-01-27 02:00:00,
2013-01-26 18:06:00,52.4,44.5,29.95,South,180,3.6,9.1,74,0.00,n/a,n/a,-99.99,Henriksen +1-Wire,2013-01-27 02:06:00,
2013-01-26 18:12:00,52.1,44.4,29.95,South,176,2.2,9.1,74,0.00,n/a,n/a,-99.99,Henriksen +1-Wire,2013-01-27 02:12:00,
2013-01-26 18:18:00,51.9,44.4,29.95,SSE,154,1.9,5.2,75,0.00,n/a,n/a,-99.99,Henriksen +1-Wire,2013-01-27 02:18:00,
2013-01-26 18:24:00,51.6,44.3,29.95,SSE,164,2.5,7.8,76,0.00,n/a,n/a,-99.99,Henriksen +1-Wire,2013-01-27 02:24:00,
2013-01-26 18:30:00,51.4,44.2,29.95,South,174,3.2,8.4,76,0.00,n/a,n/a,-99.99,Henriksen +1-Wire,2013-01-27 02:30:00,
2013-01-26 18:36:00,51.1,44.1,29.95,SSE,155,2.5,6.0,76,0.00,n/a,n/a,-99.99,Henriksen +1-Wire,2013-01-27 02:36:00,
2013-01-26 18:42:00,50.7,43.9,29.95,SE,145,1.8,4.5,77,0.00,n/a,n/a,-99.99,Henriksen +1-Wire,2013-01-27 02:42:00,
2013-01-26 18:48:00,50.4,43.8,29.95,SSE,149,2.2,4.9,77,0.00,n/a,n/a,-99.99,Henriksen +1-Wire,2013-01-27 02:48:00,
2013-01-26 18:54:00,50.2,43.7,29.95,SSE,164,1.4,4.9,78,0.00,n/a,n/a,-99.99,Henriksen +1-Wire,2013-01-27 02:54:00,
2013-01-26 19:00:00,50.0,43.7,29.96,SSE,155,2.5,4.5,78,0.00,n/a,n/a,-99.99,Henriksen +1-Wire,2013-01-27 03:00:00,
2013-01-26 19:06:00,49.8,43.7,29.96,SE,139,2.9,4.5,79,0.00,n/a,n/a,-99.99,Henriksen +1-Wire,2013-01-27 03:06:00,
2013-01-26 19:12:00,49.5,43.6,29.95,SE,139,3.6,5.8,79,0.00,n/a,n/a,-99.99,Henriksen +1-Wire,2013-01-27 03:12:00,
2013-01-26 19:18:00,49.3,43.6,29.95,SE,144,2.8,6.2,80,0.00,n/a,n/a,-99.99,Henriksen +1-Wire,2013-01-27 03:18:00,
2013-01-26 19:24:00,49.1,43.6,29.96,SE,145,2.5,6.2,81,0.00,n/a,n/a,-99.99,Henriksen +1-Wire,2013-01-27 03:24:00,
2013-01-26 19:30:00,48.8,43.5,29.96,SE,143,2.9,5.8,81,0.00,n/a,n/a,-99.99,Henriksen +1-Wire,2013-01-27 03:30:00,
2013-01-26 19:36:00,48.6,43.4,29.96,SSE,149,3.4,5.8,82,0.00,n/a,n/a,-99.99,Henriksen +1-Wire,2013-01-27 03:36:00,
2013-01-26 19:42:00,48.4,43.4,29.95,SSE,159,2.1,5.8,82,0.00,n/a,n/a,-99.99,Henriksen +1-Wire,2013-01-27 03:42:00,
2013-01-26 19:48:00,48.2,43.4,29.95,SSE,156,1.8,6.5,83,0.00,n/a,n/a,-99.99,Henriksen +1-Wire,2013-01-27 03:48:00,
2013-01-26 19:54:00,48.1,43.4,29.96,SSE,164,2.6,5.1,83,0.00,n/a,n/a,-99.99,Henriksen +1-Wire,2013-01-27 03:54:00,
2013-01-26 20:00:00,47.9,43.3,29.96,SSE,168,1.2,4.5,83,0.00,n/a,n/a,-99.99,Henriksen +1-Wire,2013-01-27 04:00:00,
2013-01-26 20:06:00,47.7,43.2,29.96,SE,144,2.7,5.2,84,0.00,n/a,n/a,-99.99,Henriksen +1-Wire,2013-01-27 04:06:00,
2013-01-26 20:12:00,47.4,43.1,29.97,SSE,156,3.2,6.5,84,0.00,n/a,n/a,-99.99,Henriksen +1-Wire,2013-01-27 04:12:00,
2013-01-26 20:18:00,47.3,43.0,29.97,SSE,154,1.8,5.2,85,0.00,n/a,n/a,-99.99,Henriksen +1-Wire,2013-01-27 04:18:00,
2013-01-26 20:24:00,47.1,43.0,29.96,SSE,159,3.1,5.2,85,0.00,n/a,n/a,-99.99,Henriksen +1-Wire,2013-01-27 04:24:00,
2013-01-26 20:30:00,47.0,43.0,29.96,SSE,156,2.1,5.2,85,0.00,n/a,n/a,-99.99,Henriksen +1-Wire,2013-01-27 04:30:00,
2013-01-26 20:36:00,46.8,42.8,29.96,SE,145,2.2,4.5,86,0.00,n/a,n/a,-99.99,Henriksen +1-Wire,2013-01-27 04:36:00,
2013-01-26 20:42:00,46.6,42.8,29.97,SSE,152,1.9,4.5,86,0.00,n/a,n/a,-99.99,Henriksen +1-Wire,2013-01-27 04:42:00,
2013-01-26 20:48:00,46.4,42.7,29.97,SSE,151,2.5,4.5,86,0.00,n/a,n/a,-99.99,Henriksen +1-Wire,2013-01-27 04:48:00,
2013-01-26 20:54:00,46.3,42.8,29.97,SSE,162,1.9,4.0,87,0.00,n/a,n/a,-99.99,Henriksen +1-Wire,2013-01-27 04:54:00,
2013-01-26 21:00:00,46.2,42.8,29.97,SSE,163,1.6,3.2,87,0.00,n/a,n/a,-99.99,Henriksen +1-Wire,2013-01-27 05:00:00,
2013-01-26 21:12:00,46.1,42.9,29.98,SSE,152,1.8,4.5,88,0.00,n/a,n/a,-99.99,Henriksen +1-Wire,2013-01-27 05:12:00,
2013-01-26 21:18:00,46.1,42.9,29.97,SSE,157,0.7,4.5,88,0.00,n/a,n/a,-99.99,Henriksen +1-Wire,2013-01-27 05:18:00,
2013-01-26 21:24:00,46.1,43.0,29.97,SE,143,1.6,3.8,88,0.00,n/a,n/a,-99.99,Henriksen +1-Wire,2013-01-27 05:24:00,
2013-01-26 21:30:00,46.1,43.0,29.98,SE,137,1.3,3.2,88,0.00,n/a,n/a,-99.99,Henriksen +1-Wire,2013-01-27 05:30:00,
2013-01-26 21:36:00,46.0,42.8,29.98,ESE,123,0.2,3.2,88,0.00,n/a,n/a,-99.99,Henriksen +1-Wire,2013-01-27 05:36:00,
2013-01-26 21:42:00,45.8,42.6,29.98,ESE,104,0.6,0.8,88,0.00,n/a,n/a,-99.99,Henriksen +1-Wire,2013-01-27 05:42:00,
2013-01-26 21:48:00,45.6,42.6,29.98,East,95,2.4,3.9,88,0.00,n/a,n/a,-99.99,Henriksen +1-Wire,2013-01-27 05:48:00,
2013-01-26 21:54:00,45.5,42.5,29.98,ESE,109,1.4,3.9,89,0.00,n/a,n/a,-99.99,Henriksen +1-Wire,2013-01-27 05:54:00,
2013-01-26 22:00:00,45.4,42.5,29.98,ESE,112,1.5,3.3,89,0.00,n/a,n/a,-99.99,Henriksen +1-Wire,2013-01-27 06:00:00,
2013-01-26 22:06:00,45.4,42.5,29.99,ESE,119,1.5,3.2,89,0.00,n/a,n/a,-99.99,Henriksen +1-Wire,2013-01-27 06:06:00,
2013-01-26 22:12:00,45.3,42.5,29.99,ESE,111,1.9,3.2,90,0.00,n/a,n/a,-99.99,Henriksen +1-Wire,2013-01-27 06:12:00,
2013-01-26 22:18:00,45.2,42.6,29.99,ESE,107,2.5,4.5,90,0.00,n/a,n/a,-99.99,Henriksen +1-Wire,2013-01-27 06:18:00,
2013-01-26 22:24:00,45.1,42.5,29.99,ESE,103,2.2,4.5,90,0.00,n/a,n/a,-99.99,Henriksen +1-Wire,2013-01-27 06:24:00,
2013-01-26 22:30:00,44.9,42.4,29.99,ESE,102,2.4,4.1,90,0.00,n/a,n/a,-99.99,Henriksen +1-Wire,2013-01-27 06:30:00,
2013-01-26 22:36:00,44.7,42.3,29.99,ESE,103,2.6,3.9,91,0.00,n/a,n/a,-99.99,Henriksen +1-Wire,2013-01-27 06:36:00,
2013-01-26 22:42:00,44.6,42.2,29.99,ESE,113,2.2,3.9,91,0.00,n/a,n/a,-99.99,Henriksen +1-Wire,2013-01-27 06:42:00,
2013-01-26 22:48:00,44.4,42.0,29.99,ESE,114,2.4,3.9,91,0.00,n/a,n/a,-99.99,Henriksen +1-Wire,2013-01-27 06:48:00,
2013-01-26 22:54:00,44.2,41.9,30.00,SE,136,0.8,3.9,91,0.00,n/a,n/a,-99.99,Henriksen +1-Wire,2013-01-27 06:54:00,
2013-01-26 23:00:00,44.0,41.7,30.00,SE,125,1.7,3.2,91,0.00,n/a,n/a,-99.99,Henriksen +1-Wire,2013-01-27 07:00:00,
2013-01-26 23:06:00,43.8,41.6,30.00,ESE,121,0.8,3.9,91,0.00,n/a,n/a,-99.99,Henriksen +1-Wire,2013-01-27 07:06:00,
2013-01-26 23:18:00,43.5,41.5,30.01,East,95,1.3,3.2,92,0.00,n/a,n/a,-99.99,Henriksen +1-Wire,2013-01-27 07:18:00,
2013-01-26 23:24:00,43.3,41.5,30.01,ESE,106,2.0,3.9,93,0.00,n/a,n/a,-99.99,Henriksen +1-Wire,2013-01-27 07:24:00,
2013-01-26 23:30:00,43.1,41.5,30.01,East,98,0.6,3.9,93,0.00,n/a,n/a,-99.99,Henriksen +1-Wire,2013-01-27 07:30:00,
2013-01-26 23:36:00,42.9,41.4,30.01,NNE,25,0.6,0.8,94,0.00,n/a,n/a,-99.99,Henriksen +1-Wire,2013-01-27 07:36:00,
2013-01-26 23:42:00,42.9,41.5,30.01,East,98,2.6,3.3,94,0.00,n/a,n/a,-99.99,Henriksen +1-Wire,2013-01-27 07:42:00,
2013-01-26 23:48:00,43.0,41.8,30.01,East,98,1.9,4.5,95,0.00,n/a,n/a,-99.99,Henriksen +1-Wire,2013-01-27 07:48:00,
2013-01-26 23:54:00,43.1,41.9,30.01,East,94,2.3,3.9,95,0.00,n/a,n/a,-99.99,Henriksen +1-Wire,2013-01-27 07:54:00,